Time;durP1;ratioP1;P1;durP2;ratioP2;P2;SDS_P1;SDS_P2;PMS_P1;PMS_P2;Temp;Humidity;BMP_temperature;BMP_pressure;BME280_temperature;BME280_humidity;BME280_pressure;Samples;Min_cycle;Max_cycle;Signal;HPM_P1;HPM_P2
2023/05/18 00:00:01;;;;;;;2.92;1.10;;;;;;;;;;4952246;28;95978;-82
2023/05/18 00:02:30;;;;;;;2.42;0.90;;;;;;;;;;4951129;28;92438;-81
2023/05/18 00:05:00;;;;;;;2.13;1.00;;;;;;;;;;4951104;28;92752;-82
2023/05/18 00:07:32;;;;;;;3.13;1.13;;;;;;;;;;4953045;28;93661;-82
2023/05/18 00:10:00;;;;;;;2.90;1.20;;;;;;;;;;4953274;28;92853;-83
2023/05/18 00:12:27;;;;;;;2.70;1.05;;;;;;;;;;4950555;28;94572;-82
2023/05/18 00:14:53;;;;;;;2.10;0.98;;;;;;;;;;4951801;28;99111;-82
2023/05/18 00:17:20;;;;;;;3.25;1.10;;;;;;;;;;4952959;28;91844;-82
2023/05/18 00:19:49;;;;;;;3.45;1.00;;;;;;;;;;4955452;28;92414;-82
2023/05/18 00:22:18;;;;;;;4.68;1.10;;;;;;;;;;4950315;28;92498;-80
2023/05/18 00:24:45;;;;;;;2.45;1.02;;;;;;;;;;4949782;28;95682;-81
2023/05/18 00:27:12;;;;;;;2.90;1.10;;;;;;;;;;4952423;28;93016;-82
2023/05/18 00:29:39;;;;;;;2.47;1.02;;;;;;;;;;4949777;28;92999;-82
2023/05/18 00:32:06;;;;;;;2.45;0.95;;;;;;;;;;4951860;28;92698;-82
2023/05/18 00:34:32;;;;;;;2.33;1.20;;;;;;;;;;4950533;28;93192;-82
2023/05/18 00:37:01;;;;;;;2.78;1.10;;;;;;;;;;4951105;28;92406;-80
2023/05/18 00:39:28;;;;;;;2.10;0.90;;;;;;;;;;4951313;28;93997;-82
2023/05/18 00:41:54;;;;;;;2.65;1.10;;;;;;;;;;4952654;28;92401;-81
2023/05/18 00:44:23;;;;;;;2.58;1.20;;;;;;;;;;4950676;28;93152;-81
2023/05/18 00:46:50;;;;;;;2.83;1.42;;;;;;;;;;4950218;28;94326;-81
2023/05/18 00:49:17;;;;;;;3.35;1.10;;;;;;;;;;4949074;28;94892;-81
2023/05/18 00:51:44;;;;;;;2.92;1.08;;;;;;;;;;4949318;28;98273;-82
2023/05/18 00:54:11;;;;;;;2.80;1.17;;;;;;;;;;4948296;28;96043;-82
2023/05/18 00:56:40;;;;;;;3.00;1.00;;;;;;;;;;4942912;28;92375;-82
2023/05/18 00:59:10;;;;;;;3.58;1.20;;;;;;;;;;4947429;28;95920;-82
2023/05/18 01:01:42;;;;;;;4.85;1.23;;;;;;;;;;4953728;28;93078;-83
2023/05/18 01:04:12;;;;;;;3.15;1.30;;;;;;;;;;4949863;28;96033;-83
2023/05/18 01:06:40;;;;;;;3.50;1.20;;;;;;;;;;4949986;28;93448;-82
2023/05/18 01:09:08;;;;;;;4.53;1.20;;;;;;;;;;4949666;28;92606;-82
2023/05/18 01:11:53;;;;;;;2.20;1.00;;;;;;;;;;4947439;28;97150;-83
2023/05/18 01:14:23;;;;;;;2.28;1.10;;;;;;;;;;4947473;28;95480;-83
2023/05/18 01:17:04;;;;;;;1.95;1.10;;;;;;;;;;4948062;28;92494;-83
2023/05/18 01:19:49;;;;;;;4.18;1.20;;;;;;;;;;4950153;28;92825;-82
2023/05/18 01:22:28;;;;;;;4.75;1.20;;;;;;;;;;4948655;28;93026;-82
2023/05/18 01:25:28;;;;;;;3.92;1.23;;;;;;;;;;4950933;28;94973;-82
2023/05/18 01:27:58;;;;;;;3.95;1.10;;;;;;;;;;4955161;28;93245;-82
2023/05/18 01:30:25;;;;;;;2.03;1.08;;;;;;;;;;4949977;28;92463;-82
2023/05/18 01:32:53;;;;;;;4.53;1.20;;;;;;;;;;4948260;28;95601;-82
2023/05/18 01:35:19;;;;;;;4.55;1.27;;;;;;;;;;4949196;28;92856;-82
2023/05/18 01:37:46;;;;;;;2.75;1.13;;;;;;;;;;4948447;28;92689;-81
2023/05/18 01:40:13;;;;;;;3.65;1.02;;;;;;;;;;4947063;28;95634;-82
2023/05/18 01:42:43;;;;;;;2.95;1.20;;;;;;;;;;4942248;28;93073;-82
2023/05/18 01:45:15;;;;;;;3.35;1.10;;;;;;;;;;4932101;28;92590;-82
2023/05/18 01:47:44;;;;;;;1.98;1.05;;;;;;;;;;4952654;28;92779;-82
2023/05/18 01:50:17;;;;;;;3.58;1.30;;;;;;;;;;4949151;28;92858;-82
2023/05/18 01:52:47;;;;;;;2.33;1.10;;;;;;;;;;4943346;28;92691;-83
2023/05/18 01:55:14;;;;;;;4.03;1.25;;;;;;;;;;4947633;28;96715;-81
2023/05/18 01:57:42;;;;;;;4.43;1.20;;;;;;;;;;4935006;28;91838;-81
2023/05/18 02:00:10;;;;;;;3.40;1.20;;;;;;;;;;4948679;28;94099;-82
2023/05/18 02:02:43;;;;;;;2.40;1.08;;;;;;;;;;4948970;28;92966;-82
2023/05/18 02:05:12;;;;;;;3.22;1.30;;;;;;;;;;4947134;28;94786;-82
2023/05/18 02:07:42;;;;;;;2.88;1.02;;;;;;;;;;4948328;28;96467;-81
2023/05/18 02:10:10;;;;;;;3.17;1.10;;;;;;;;;;4953716;28;96401;-80
2023/05/18 02:12:36;;;;;;;3.38;1.10;;;;;;;;;;4951003;28;95061;-82
2023/05/18 02:15:04;;;;;;;3.47;1.10;;;;;;;;;;4974721;28;94445;-85
2023/05/18 02:17:37;;;;;;;3.78;1.30;;;;;;;;;;4974340;28;92509;-82
2023/05/18 02:20:08;;;;;;;2.78;1.10;;;;;;;;;;4961661;28;92808;-81
2023/05/18 02:22:35;;;;;;;2.53;1.08;;;;;;;;;;4961270;28;92478;-81
2023/05/18 02:25:03;;;;;;;3.35;1.10;;;;;;;;;;4972281;28;92555;-81
2023/05/18 02:27:31;;;;;;;2.58;1.30;;;;;;;;;;4973618;28;95230;-81
2023/05/18 02:29:58;;;;;;;4.38;1.25;;;;;;;;;;4973476;28;95550;-81
2023/05/18 02:32:24;;;;;;;2.50;1.10;;;;;;;;;;4976771;28;92859;-82
2023/05/18 02:34:51;;;;;;;2.85;1.10;;;;;;;;;;4965543;28;92568;-83
2023/05/18 02:37:21;;;;;;;3.40;1.10;;;;;;;;;;4955575;28;92630;-82
2023/05/18 02:39:48;;;;;;;2.90;1.10;;;;;;;;;;4944976;28;93305;-82
2023/05/18 02:42:15;;;;;;;3.67;1.40;;;;;;;;;;4952819;28;93034;-82
2023/05/18 02:44:42;;;;;;;2.85;1.10;;;;;;;;;;4951226;28;92575;-81
2023/05/18 02:47:12;;;;;;;3.42;1.30;;;;;;;;;;4951283;28;99075;-82
2023/05/18 02:49:39;;;;;;;2.45;1.10;;;;;;;;;;4950502;28;96286;-82
2023/05/18 02:52:05;;;;;;;2.70;1.10;;;;;;;;;;4951100;28;92598;-81
2023/05/18 02:54:32;;;;;;;2.30;1.00;;;;;;;;;;4951658;28;94917;-81
2023/05/18 02:56:59;;;;;;;2.63;1.00;;;;;;;;;;4935839;28;92802;-82
2023/05/18 02:59:37;;;;;;;1.98;0.95;;;;;;;;;;4949349;28;92754;-83
2023/05/18 03:02:05;;;;;;;2.92;1.10;;;;;;;;;;4950193;28;95922;-82
2023/05/18 03:04:31;;;;;;;;;;;;;;;;;;4949767;28;92828;-82
2023/05/18 03:07:01;;;;;;;3.20;0.93;;;;;;;;;;4952105;28;95243;-82
2023/05/18 03:09:28;;;;;;;3.05;1.20;;;;;;;;;;4950109;28;96269;-82
2023/05/18 03:11:55;;;;;;;;;;;;;;;;;;4956850;28;91712;-82
2023/05/18 03:14:22;;;;;;;3.63;1.20;;;;;;;;;;4954577;28;93863;-80
2023/05/18 03:16:52;;;;;;;2.80;1.08;;;;;;;;;;4946473;28;92919;-82
2023/05/18 03:19:20;;;;;;;3.85;1.35;;;;;;;;;;4941550;28;95355;-81
2023/05/18 03:21:48;;;;;;;2.40;1.10;;;;;;;;;;4950710;28;94083;-80
2023/05/18 03:24:15;;;;;;;2.40;1.13;;;;;;;;;;4951002;28;92670;-81
2023/05/18 03:26:46;;;;;;;3.53;1.20;;;;;;;;;;4949269;28;95615;-81
2023/05/18 03:29:12;;;;;;;2.13;1.08;;;;;;;;;;4949401;28;95393;-81
2023/05/18 03:31:40;;;;;;;4.35;1.20;;;;;;;;;;4949780;28;92884;-82
2023/05/18 03:34:08;;;;;;;2.80;1.20;;;;;;;;;;4949745;28;95410;-81
2023/05/18 03:36:35;;;;;;;4.40;1.17;;;;;;;;;;4952632;28;95802;-81
2023/05/18 03:39:01;;;;;;;2.55;1.30;;;;;;;;;;4936587;28;93736;-81
2023/05/18 03:41:28;;;;;;;2.95;1.10;;;;;;;;;;4949619;28;96038;-82
2023/05/18 03:43:55;;;;;;;3.70;1.23;;;;;;;;;;4947891;28;95214;-82
2023/05/18 03:46:22;;;;;;;3.00;1.20;;;;;;;;;;4949939;28;98420;-82
2023/05/18 03:48:49;;;;;;;2.83;1.10;;;;;;;;;;4949941;28;95897;-81
2023/05/18 03:51:20;;;;;;;3.65;1.05;;;;;;;;;;4953116;28;92749;-81
2023/05/18 03:53:47;;;;;;;2.55;0.88;;;;;;;;;;4933986;28;95623;-82
2023/05/18 03:56:13;;;;;;;4.75;1.40;;;;;;;;;;4951530;28;92597;-82
2023/05/18 03:58:41;;;;;;;3.70;1.20;;;;;;;;;;4953141;28;92542;-82
2023/05/18 04:01:08;;;;;;;;;;;;;;;;;;4934270;28;94534;-82
2023/05/18 04:03:34;;;;;;;3.58;1.30;;;;;;;;;;4950298;28;110173;-82
2023/05/18 04:06:02;;;;;;;3.10;1.10;;;;;;;;;;4950394;28;94100;-83
2023/05/18 04:08:29;;;;;;;3.13;1.20;;;;;;;;;;4948613;28;95633;-80
2023/05/18 04:10:57;;;;;;;2.63;1.00;;;;;;;;;;4928875;28;92448;-83
2023/05/18 04:13:23;;;;;;;2.67;1.13;;;;;;;;;;4949535;28;92717;-82
2023/05/18 04:15:50;;;;;;;3.47;1.20;;;;;;;;;;4950752;28;93289;-82
2023/05/18 04:18:17;;;;;;;3.30;1.20;;;;;;;;;;4950553;28;92462;-82
2023/05/18 04:20:44;;;;;;;3.45;1.25;;;;;;;;;;4951563;28;94097;-82
2023/05/18 04:23:11;;;;;;;2.42;1.30;;;;;;;;;;4950723;28;92777;-82
2023/05/18 04:25:40;;;;;;;3.55;1.35;;;;;;;;;;4949583;28;93933;-82
2023/05/18 04:28:08;;;;;;;1.88;1.00;;;;;;;;;;4951057;28;93076;-82
2023/05/18 04:30:36;;;;;;;3.13;1.33;;;;;;;;;;4952440;28;92591;-82
2023/05/18 04:33:05;;;;;;;3.55;1.58;;;;;;;;;;4948794;28;95667;-82
2023/05/18 04:35:32;;;;;;;3.50;1.30;;;;;;;;;;4943884;28;93220;-82
2023/05/18 04:37:59;;;;;;;2.80;1.20;;;;;;;;;;4968806;28;92551;-81
2023/05/18 04:40:25;;;;;;;3.47;1.17;;;;;;;;;;4969104;28;95831;-81
2023/05/18 04:42:53;;;;;;;3.03;1.10;;;;;;;;;;4935048;28;100477;-81
2023/05/18 04:45:24;;;;;;;4.97;1.10;;;;;;;;;;4956781;28;95409;-82
2023/05/18 04:47:53;;;;;;;2.50;1.00;;;;;;;;;;4955791;28;95994;-81
2023/05/18 04:50:24;;;;;;;4.30;1.30;;;;;;;;;;4964171;28;91875;-82
2023/05/18 04:52:51;;;;;;;2.22;1.10;;;;;;;;;;4955214;28;92476;-84
2023/05/18 04:55:26;;;;;;;2.40;1.10;;;;;;;;;;4968767;28;95477;-81
2023/05/18 04:58:03;;;;;;;2.53;1.00;;;;;;;;;;4961272;28;94983;-81
2023/05/18 05:00:30;;;;;;;4.35;1.20;;;;;;;;;;4947748;28;98270;-80
2023/05/18 05:02:57;;;;;;;3.85;1.30;;;;;;;;;;4947924;28;95109;-83
2023/05/18 05:05:24;;;;;;;4.25;1.30;;;;;;;;;;4939872;28;93303;-82
2023/05/18 05:07:52;;;;;;;3.03;1.20;;;;;;;;;;4953893;28;95860;-82
2023/05/18 05:10:18;;;;;;;;;;;;;;;;;;4965119;28;92609;-82
2023/05/18 05:12:45;;;;;;;2.00;1.15;;;;;;;;;;4970343;28;92484;-80
2023/05/18 05:15:15;;;;;;;2.30;1.17;;;;;;;;;;4956416;28;92384;-83
2023/05/18 05:17:41;;;;;;;2.75;1.20;;;;;;;;;;4967793;28;92555;-83
2023/05/18 05:20:08;;;;;;;2.85;1.23;;;;;;;;;;4969150;28;93151;-81
2023/05/18 05:22:35;;;;;;;3.28;1.20;;;;;;;;;;4955682;28;98168;-81
2023/05/18 05:25:03;;;;;;;2.88;1.20;;;;;;;;;;4957428;28;92650;-81
2023/05/18 05:27:32;;;;;;;3.38;1.30;;;;;;;;;;4967345;28;95603;-82
2023/05/18 05:29:58;;;;;;;2.08;1.00;;;;;;;;;;4964594;28;92491;-82
2023/05/18 05:32:25;;;;;;;4.03;1.20;;;;;;;;;;4944085;28;94066;-82
2023/05/18 05:34:52;;;;;;;3.30;1.08;;;;;;;;;;4946684;28;93341;-82
2023/05/18 05:37:20;;;;;;;2.38;1.10;;;;;;;;;;4945654;28;92442;-82
2023/05/18 05:39:47;;;;;;;3.78;1.20;;;;;;;;;;4941147;28;94902;-82
2023/05/18 05:42:16;;;;;;;2.38;1.20;;;;;;;;;;4947630;28;95546;-81
2023/05/18 05:44:42;;;;;;;2.65;1.10;;;;;;;;;;4946973;28;92513;-82
2023/05/18 05:47:09;;;;;;;4.35;1.10;;;;;;;;;;4949455;28;95475;-82
2023/05/18 05:49:36;;;;;;;2.17;1.00;;;;;;;;;;4947851;28;92543;-83
2023/05/18 05:52:04;;;;;;;2.83;1.15;;;;;;;;;;4948189;28;94094;-82
2023/05/18 05:54:31;;;;;;;3.85;1.35;;;;;;;;;;4930667;28;95555;-82
2023/05/18 05:56:58;;;;;;;2.33;1.10;;;;;;;;;;4950092;28;92562;-83
2023/05/18 05:59:24;;;;;;;2.83;1.15;;;;;;;;;;4945068;28;94400;-83
2023/05/18 06:01:51;;;;;;;2.88;1.20;;;;;;;;;;4947394;28;94771;-83
2023/05/18 06:04:19;;;;;;;2.38;1.02;;;;;;;;;;4947808;28;91838;-81
2023/05/18 06:06:46;;;;;;;2.10;1.13;;;;;;;;;;4939909;28;94358;-81
2023/05/18 06:09:13;;;;;;;2.58;1.10;;;;;;;;;;4950818;28;95092;-82
2023/05/18 06:11:40;;;;;;;3.22;1.10;;;;;;;;;;4946406;28;95522;-81
2023/05/18 06:14:07;;;;;;;2.10;1.05;;;;;;;;;;4954507;28;95981;-81
2023/05/18 06:16:34;;;;;;;3.95;1.25;;;;;;;;;;4947325;28;92503;-81
2023/05/18 06:19:01;;;;;;;3.28;1.10;;;;;;;;;;4931420;28;94202;-81
2023/05/18 06:21:28;;;;;;;2.70;1.10;;;;;;;;;;4944105;28;95769;-82
2023/05/18 06:23:56;;;;;;;2.20;0.98;;;;;;;;;;4946763;28;92779;-82
2023/05/18 06:26:36;;;;;;;;;;;;;;;;;;4932283;28;95859;-81
2023/05/18 06:29:29;;;;;;;1.90;1.15;;;;;;;;;;4956012;28;92667;-81
2023/05/18 06:32:14;;;;;;;1.77;1.00;;;;;;;;;;4951904;28;92458;-82
2023/05/18 06:34:44;;;;;;;2.60;1.10;;;;;;;;;;4934322;28;93947;-81
2023/05/18 06:37:11;;;;;;;3.35;1.05;;;;;;;;;;4944045;28;96619;-83
2023/05/18 06:39:38;;;;;;;2.40;0.98;;;;;;;;;;4947820;28;96231;-82
2023/05/18 06:42:05;;;;;;;3.17;1.10;;;;;;;;;;4947303;28;94700;-82
2023/05/18 06:44:34;;;;;;;3.70;1.30;;;;;;;;;;4947571;28;92575;-82
2023/05/18 06:47:08;;;;;;;3.75;1.30;;;;;;;;;;4947328;28;95303;-82
2023/05/18 06:49:35;;;;;;;3.38;1.23;;;;;;;;;;4947975;28;96395;-82
2023/05/18 06:52:02;;;;;;;3.72;1.20;;;;;;;;;;4947657;28;92574;-83
2023/05/18 06:54:29;;;;;;;2.97;1.20;;;;;;;;;;4950279;28;95287;-82
2023/05/18 06:56:56;;;;;;;2.58;1.08;;;;;;;;;;4949358;28;92722;-82
2023/05/18 06:59:23;;;;;;;3.80;1.23;;;;;;;;;;4951768;28;93807;-83
2023/05/18 07:01:49;;;;;;;2.90;1.00;;;;;;;;;;4947036;28;95591;-81
2023/05/18 07:04:18;;;;;;;2.45;1.20;;;;;;;;;;4945687;28;92393;-83
2023/05/18 07:06:45;;;;;;;3.33;1.08;;;;;;;;;;4951564;28;93066;-81
2023/05/18 07:09:11;;;;;;;3.70;1.30;;;;;;;;;;4951878;28;93994;-82
2023/05/18 07:11:41;;;;;;;2.13;1.10;;;;;;;;;;4956316;28;92966;-81
2023/05/18 07:14:07;;;;;;;2.53;1.10;;;;;;;;;;4955061;28;92840;-82
2023/05/18 07:16:34;;;;;;;3.38;1.30;;;;;;;;;;4957090;28;92519;-81
2023/05/18 07:19:01;;;;;;;3.20;1.10;;;;;;;;;;4947042;28;92635;-82
2023/05/18 07:21:28;;;;;;;2.72;1.20;;;;;;;;;;4944123;28;93060;-81
2023/05/18 07:23:54;;;;;;;2.75;1.05;;;;;;;;;;4952300;28;92512;-82
2023/05/18 07:26:21;;;;;;;3.88;1.25;;;;;;;;;;4949721;28;95162;-82
2023/05/18 07:28:50;;;;;;;2.40;1.20;;;;;;;;;;4950843;28;93018;-81
2023/05/18 07:31:19;;;;;;;3.50;1.10;;;;;;;;;;4951528;28;92534;-82
2023/05/18 07:33:49;;;;;;;1.88;1.00;;;;;;;;;;4951545;28;93269;-82
2023/05/18 07:36:18;;;;;;;4.18;1.40;;;;;;;;;;4954539;28;94603;-82
2023/05/18 07:38:45;;;;;;;4.13;1.17;;;;;;;;;;4951200;28;92769;-82
2023/05/18 07:41:11;;;;;;;3.83;1.38;;;;;;;;;;4951256;28;93325;-82
2023/05/18 07:43:38;;;;;;;2.92;1.00;;;;;;;;;;4951149;28;92148;-82
2023/05/18 07:46:05;;;;;;;2.10;1.10;;;;;;;;;;4950212;28;92598;-82
2023/05/18 07:48:31;;;;;;;3.08;1.13;;;;;;;;;;4948945;28;92937;-80
2023/05/18 07:50:58;;;;;;;3.60;1.20;;;;;;;;;;4950271;28;94971;-82
2023/05/18 07:53:25;;;;;;;3.97;1.20;;;;;;;;;;4951756;28;95332;-82
2023/05/18 07:55:51;;;;;;;4.53;1.25;;;;;;;;;;4949952;28;92997;-81
2023/05/18 07:58:18;;;;;;;2.25;1.17;;;;;;;;;;4949080;28;92819;-81
2023/05/18 08:00:45;;;;;;;3.58;1.30;;;;;;;;;;4947680;28;93285;-82
2023/05/18 08:03:11;;;;;;;4.97;1.30;;;;;;;;;;4949393;28;92497;-81
2023/05/18 08:05:38;;;;;;;3.33;1.20;;;;;;;;;;4952072;28;92860;-82
2023/05/18 08:08:04;;;;;;;3.50;1.17;;;;;;;;;;4951987;28;92821;-81
2023/05/18 08:10:32;;;;;;;3.42;1.35;;;;;;;;;;4949761;28;92572;-81
2023/05/18 08:12:59;;;;;;;1.50;0.93;;;;;;;;;;4941096;28;95254;-81
2023/05/18 08:15:25;;;;;;;3.13;1.23;;;;;;;;;;4950147;28;96037;-81
2023/05/18 08:17:53;;;;;;;5.00;1.27;;;;;;;;;;4951815;28;92579;-80
2023/05/18 08:20:20;;;;;;;3.47;1.30;;;;;;;;;;4940543;28;93798;-81
2023/05/18 08:22:47;;;;;;;2.78;0.93;;;;;;;;;;4948918;28;92602;-82
2023/05/18 08:25:15;;;;;;;4.68;1.30;;;;;;;;;;4949878;28;92937;-82
2023/05/18 08:27:41;;;;;;;2.80;1.10;;;;;;;;;;4946908;28;95288;-82
2023/05/18 08:30:08;;;;;;;4.20;1.27;;;;;;;;;;4952801;28;92356;-83
2023/05/18 08:32:36;;;;;;;2.72;1.17;;;;;;;;;;4952755;28;91972;-81
2023/05/18 08:35:07;;;;;;;3.78;1.40;;;;;;;;;;4952953;28;93084;-81
2023/05/18 08:37:37;;;;;;;2.88;1.00;;;;;;;;;;4950511;28;92981;-81
2023/05/18 08:40:06;;;;;;;3.10;1.20;;;;;;;;;;4948541;28;95802;-82
2023/05/18 08:42:50;;;;;;;3.90;1.33;;;;;;;;;;4953988;28;92566;-83
2023/05/18 08:45:26;;;;;;;3.95;1.00;;;;;;;;;;4951114;28;92778;-83
2023/05/18 08:47:54;;;;;;;2.83;1.20;;;;;;;;;;4953141;28;93386;-81
2023/05/18 08:50:22;;;;;;;3.22;1.02;;;;;;;;;;4954599;28;93257;-82
2023/05/18 08:52:53;;;;;;;2.85;0.93;;;;;;;;;;4951880;28;92903;-81
2023/05/18 08:55:20;;;;;;;3.67;1.10;;;;;;;;;;4950834;28;93171;-82
2023/05/18 08:57:49;;;;;;;3.58;1.30;;;;;;;;;;4950629;28;91848;-81
2023/05/18 09:00:17;;;;;;;2.85;1.10;;;;;;;;;;4955007;28;92515;-81
2023/05/18 09:02:44;;;;;;;2.53;1.02;;;;;;;;;;4950093;28;92573;-81
2023/05/18 09:05:12;;;;;;;3.28;1.20;;;;;;;;;;4951761;28;95066;-82
2023/05/18 09:07:40;;;;;;;3.40;1.10;;;;;;;;;;4949880;28;93350;-80
2023/05/18 09:10:10;;;;;;;3.47;1.05;;;;;;;;;;4935951;28;92499;-81
2023/05/18 09:12:38;;;;;;;3.03;1.10;;;;;;;;;;4948562;28;92723;-81
2023/05/18 09:15:05;;;;;;;4.53;1.15;;;;;;;;;;4949615;28;93066;-81
2023/05/18 09:17:31;;;;;;;4.18;1.10;;;;;;;;;;4949807;28;92410;-82
2023/05/18 09:19:58;;;;;;;3.05;1.00;;;;;;;;;;4949703;28;93174;-83
2023/05/18 09:22:25;;;;;;;3.05;1.08;;;;;;;;;;4937797;28;93370;-82
2023/05/18 09:24:52;;;;;;;4.78;1.23;;;;;;;;;;4947543;28;92602;-82
2023/05/18 09:27:18;;;;;;;4.35;1.10;;;;;;;;;;4949204;28;93714;-82
2023/05/18 09:29:52;;;;;;;2.28;0.88;;;;;;;;;;4949467;28;94819;-82
2023/05/18 09:32:19;;;;;;;3.38;1.33;;;;;;;;;;4937770;28;95009;-83
2023/05/18 09:34:49;;;;;;;3.20;1.10;;;;;;;;;;4949106;28;94030;-82
2023/05/18 09:37:16;;;;;;;2.33;1.10;;;;;;;;;;4946563;28;92982;-83
2023/05/18 09:39:43;;;;;;;2.03;1.00;;;;;;;;;;4949322;28;93237;-82
2023/05/18 09:42:11;;;;;;;3.55;1.20;;;;;;;;;;4950595;28;93921;-84
2023/05/18 09:44:41;;;;;;;4.00;1.20;;;;;;;;;;4944973;28;98581;-81
2023/05/18 09:47:11;;;;;;;2.90;1.20;;;;;;;;;;4949189;28;98669;-82
2023/05/18 09:49:39;;;;;;;2.85;1.00;;;;;;;;;;4943789;28;98618;-83
2023/05/18 09:52:06;;;;;;;2.60;1.30;;;;;;;;;;4946153;28;99694;-82
2023/05/18 09:54:34;;;;;;;3.10;1.10;;;;;;;;;;4946906;28;100672;-80
2023/05/18 09:57:01;;;;;;;4.25;1.30;;;;;;;;;;4946614;28;98684;-81
2023/05/18 09:59:36;;;;;;;2.83;1.10;;;;;;;;;;4949570;28;98796;-82
2023/05/18 10:02:07;;;;;;;2.83;1.10;;;;;;;;;;4953131;28;99364;-82
2023/05/18 10:04:38;;;;;;;3.75;1.10;;;;;;;;;;4952159;28;98882;-82
2023/05/18 10:07:10;;;;;;;3.08;1.20;;;;;;;;;;4959599;28;98769;-82
2023/05/18 10:09:36;;;;;;;2.83;1.10;;;;;;;;;;4961360;28;99183;-82
2023/05/18 10:12:08;;;;;;;3.78;1.13;;;;;;;;;;4959137;28;98825;-82
2023/05/18 10:14:35;;;;;;;3.65;1.27;;;;;;;;;;4957386;28;98500;-82
2023/05/18 10:17:05;;;;;;;2.50;0.98;;;;;;;;;;4955013;28;98548;-82
2023/05/18 10:19:41;;;;;;;3.95;1.27;;;;;;;;;;4939894;28;99382;-82
2023/05/18 10:22:08;;;;;;;4.18;1.10;;;;;;;;;;4935961;28;99149;-83
2023/05/18 10:24:37;;;;;;;2.95;1.10;;;;;;;;;;4947656;28;98658;-82
2023/05/18 10:27:08;;;;;;;3.80;1.20;;;;;;;;;;4947685;28;98799;-82
2023/05/18 10:29:37;;;;;;;2.63;1.00;;;;;;;;;;4928265;28;101688;-82
2023/05/18 10:32:04;;;;;;;3.70;1.20;;;;;;;;;;4951472;28;99103;-83
2023/05/18 10:34:33;;;;;;;1.95;1.10;;;;;;;;;;4962578;28;98625;-82
2023/05/18 10:37:03;;;;;;;2.80;1.17;;;;;;;;;;4959124;28;97840;-83
2023/05/18 10:39:30;;;;;;;2.65;1.00;;;;;;;;;;4971404;28;99667;-82
2023/05/18 10:41:58;;;;;;;3.05;1.10;;;;;;;;;;4968745;28;99260;-83
2023/05/18 10:44:24;;;;;;;;;;;;;;;;;;4968922;28;99269;-83
2023/05/18 10:46:51;;;;;;;2.13;0.98;;;;;;;;;;4969838;28;99686;-83
2023/05/18 10:49:22;;;;;;;3.72;1.02;;;;;;;;;;4967744;28;100533;-82
2023/05/18 10:51:51;;;;;;;3.17;1.08;;;;;;;;;;4967476;28;98757;-83
2023/05/18 10:54:18;;;;;;;3.92;1.00;;;;;;;;;;4971639;28;99275;-82
2023/05/18 10:56:47;;;;;;;2.55;1.05;;;;;;;;;;4953966;28;99242;-82
2023/05/18 10:59:13;;;;;;;1.83;0.90;;;;;;;;;;4954120;28;98964;-82
2023/05/18 11:01:41;;;;;;;4.32;1.20;;;;;;;;;;4953406;28;98478;-82
2023/05/18 11:04:07;;;;;;;;;;;;;;;;;;4950159;28;98551;-82
2023/05/18 11:06:34;;;;;;;3.03;1.10;;;;;;;;;;4948264;28;98857;-83
2023/05/18 11:09:01;;;;;;;2.83;1.10;;;;;;;;;;4948356;28;99897;-82
2023/05/18 11:11:30;;;;;;;3.05;1.00;;;;;;;;;;4947342;28;98649;-83
2023/05/18 11:14:01;;;;;;;1.55;0.80;;;;;;;;;;4947406;28;99934;-82
2023/05/18 11:16:32;;;;;;;3.13;1.10;;;;;;;;;;4950412;28;99690;-82
2023/05/18 11:19:11;;;;;;;2.47;0.93;;;;;;;;;;4945892;28;103377;-84
2023/05/18 11:21:40;;;;;;;2.35;0.98;;;;;;;;;;4945082;28;99322;-82
2023/05/18 11:24:22;;;;;;;2.13;0.90;;;;;;;;;;4943753;28;99262;-81
2023/05/18 11:27:10;;;;;;;3.35;1.10;;;;;;;;;;4948061;28;98925;-81
2023/05/18 11:29:43;;;;;;;2.28;1.00;;;;;;;;;;4947591;28;99368;-82
2023/05/18 11:32:25;;;;;;;3.55;1.23;;;;;;;;;;4948501;28;98569;-82
2023/05/18 11:34:56;;;;;;;2.67;0.90;;;;;;;;;;4981145;28;103304;-82
2023/05/18 11:37:38;;;;;;;2.88;1.00;;;;;;;;;;4960556;28;99477;-82
2023/05/18 11:40:08;;;;;;;2.13;1.00;;;;;;;;;;4967462;28;100812;-84
2023/05/18 11:42:37;;;;;;;3.90;1.20;;;;;;;;;;4965786;28;100000;-82
2023/05/18 11:45:07;;;;;;;3.10;1.00;;;;;;;;;;4955832;28;98761;-82
2023/05/18 11:47:35;;;;;;;2.67;1.00;;;;;;;;;;4965758;28;99034;-82
2023/05/18 11:50:05;;;;;;;3.58;1.00;;;;;;;;;;4965295;28;99936;-82
2023/05/18 11:52:32;;;;;;;2.42;0.98;;;;;;;;;;4949192;28;97736;-82
2023/05/18 11:55:00;;;;;;;2.38;1.00;;;;;;;;;;4947787;28;99162;-83
2023/05/18 11:57:33;;;;;;;1.60;0.90;;;;;;;;;;4946643;28;99650;-82
2023/05/18 12:00:01;;;;;;;2.17;0.95;;;;;;;;;;4950198;28;99471;-83
2023/05/18 12:02:38;;;;;;;3.92;1.00;;;;;;;;;;4945795;28;105792;-82
2023/05/18 12:05:08;;;;;;;2.15;0.90;;;;;;;;;;4947500;28;98606;-83
2023/05/18 12:07:35;;;;;;;2.75;1.10;;;;;;;;;;4947593;28;98748;-82
2023/05/18 12:10:01;;;;;;;3.50;1.10;;;;;;;;;;4946742;28;99224;-83
2023/05/18 12:12:28;;;;;;;3.17;1.05;;;;;;;;;;4945002;28;98892;-81
2023/05/18 12:15:02;;;;;;;2.72;1.00;;;;;;;;;;4946797;28;100142;-81
2023/05/18 12:17:48;;;;;;;1.25;0.93;;;;;;;;;;4947581;28;98576;-82
2023/05/18 12:20:16;;;;;;;4.10;1.05;;;;;;;;;;4948600;28;99140;-82
2023/05/18 12:22:49;;;;;;;2.25;0.90;;;;;;;;;;4949127;28;100194;-82
2023/05/18 12:25:15;;;;;;;1.70;0.90;;;;;;;;;;4946931;28;99269;-82
2023/05/18 12:27:43;;;;;;;1.95;0.90;;;;;;;;;;4947650;28;99905;-82
2023/05/18 12:30:15;;;;;;;2.63;1.00;;;;;;;;;;4946930;28;99413;-82
2023/05/18 12:32:52;;;;;;;2.47;0.90;;;;;;;;;;4946289;28;98949;-82
2023/05/18 12:35:22;;;;;;;3.13;0.80;;;;;;;;;;4947323;28;100024;-83
2023/05/18 12:37:49;;;;;;;2.85;1.00;;;;;;;;;;4936282;28;99163;-83
2023/05/18 12:40:16;;;;;;;3.00;0.88;;;;;;;;;;4946772;28;98667;-83
2023/05/18 12:42:55;;;;;;;2.65;0.93;;;;;;;;;;4946712;28;98897;-83
2023/05/18 12:45:27;;;;;;;3.05;1.00;;;;;;;;;;4949998;28;99224;-83
2023/05/18 12:47:54;;;;;;;1.85;1.00;;;;;;;;;;4946555;28;100162;-83
2023/05/18 12:50:22;;;;;;;1.77;0.80;;;;;;;;;;4945373;28;103206;-83
2023/05/18 12:52:49;;;;;;;1.52;1.00;;;;;;;;;;4945910;28;98579;-84
2023/05/18 12:55:22;;;;;;;2.30;0.95;;;;;;;;;;4946218;28;98738;-83
2023/05/18 12:58:05;;;;;;;2.13;0.88;;;;;;;;;;4945869;28;99187;-83
2023/05/18 13:00:32;;;;;;;2.20;0.88;;;;;;;;;;4944510;28;98739;-82
2023/05/18 13:03:06;;;;;;;1.30;0.80;;;;;;;;;;4946807;28;98746;-84
2023/05/18 13:05:35;;;;;;;2.45;0.88;;;;;;;;;;4946721;28;99235;-83
2023/05/18 13:08:01;;;;;;;2.92;1.00;;;;;;;;;;4950423;28;98116;-83
2023/05/18 13:10:32;;;;;;;2.20;1.00;;;;;;;;;;4946336;28;99117;-82
2023/05/18 13:13:02;;;;;;;2.55;0.90;;;;;;;;;;4941084;28;98823;-84
2023/05/18 13:15:34;;;;;;;2.38;0.80;;;;;;;;;;4946156;28;101142;-83
2023/05/18 13:18:10;;;;;;;3.10;0.90;;;;;;;;;;4937652;28;99115;-83
2023/05/18 13:20:41;;;;;;;2.53;0.95;;;;;;;;;;4946184;28;98920;-82
2023/05/18 13:23:09;;;;;;;2.55;1.00;;;;;;;;;;4944993;28;98835;-84
2023/05/18 13:25:36;;;;;;;3.83;1.08;;;;;;;;;;4947978;28;100434;-84
2023/05/18 13:28:02;;;;;;;2.22;0.80;;;;;;;;;;4951067;28;98595;-84
2023/05/18 13:30:29;;;;;;;2.67;0.90;;;;;;;;;;4951117;28;99717;-83
2023/05/18 13:32:56;;;;;;;3.08;1.10;;;;;;;;;;4946733;28;97813;-83
2023/05/18 13:35:23;;;;;;;3.28;1.05;;;;;;;;;;4946227;28;98524;-83
2023/05/18 13:37:50;;;;;;;2.90;1.10;;;;;;;;;;4936659;28;99140;-84
2023/05/18 13:40:17;;;;;;;2.90;1.00;;;;;;;;;;4944535;28;99321;-84
2023/05/18 13:42:46;;;;;;;1.88;0.90;;;;;;;;;;4944156;28;99764;-84
2023/05/18 13:45:13;;;;;;;1.73;0.80;;;;;;;;;;4946093;28;99146;-83
2023/05/18 13:47:42;;;;;;;1.60;0.80;;;;;;;;;;4946554;28;98519;-84
2023/05/18 13:50:09;;;;;;;2.53;0.98;;;;;;;;;;4950002;28;98899;-83
2023/05/18 13:52:35;;;;;;;1.17;0.80;;;;;;;;;;4945501;28;98618;-83
2023/05/18 13:55:03;;;;;;;1.67;0.85;;;;;;;;;;4946198;28;101566;-84
2023/05/18 13:57:30;;;;;;;2.67;0.93;;;;;;;;;;4945423;28;99470;-83
2023/05/18 14:00:02;;;;;;;1.90;0.82;;;;;;;;;;4945061;28;98499;-83
2023/05/18 14:02:37;;;;;;;1.95;0.80;;;;;;;;;;4945103;28;99195;-83
2023/05/18 14:05:07;;;;;;;1.60;0.95;;;;;;;;;;4936559;28;101388;-83
2023/05/18 14:07:35;;;;;;;2.22;0.90;;;;;;;;;;4949010;28;98669;-84
2023/05/18 14:10:01;;;;;;;;;;;;;;;;;;4949551;28;99805;-83
2023/05/18 14:12:28;;;;;;;2.88;0.90;;;;;;;;;;4952786;28;99262;-83
2023/05/18 14:14:55;;;;;;;1.70;0.90;;;;;;;;;;4948397;28;100057;-83
2023/05/18 14:17:21;;;;;;;2.92;0.95;;;;;;;;;;4948219;28;99665;-83
2023/05/18 14:19:48;;;;;;;3.08;0.85;;;;;;;;;;4945934;28;98686;-83
2023/05/18 14:22:16;;;;;;;2.67;1.10;;;;;;;;;;4949187;28;98741;-83
2023/05/18 14:24:42;;;;;;;2.90;1.05;;;;;;;;;;4947415;28;99893;-83
2023/05/18 14:27:09;;;;;;;2.08;1.10;;;;;;;;;;4949552;28;98944;-82
2023/05/18 14:29:35;;;;;;;2.00;0.90;;;;;;;;;;4948783;28;99311;-83
2023/05/18 14:32:02;;;;;;;1.70;0.80;;;;;;;;;;4947932;28;99422;-83
2023/05/18 14:34:29;;;;;;;1.80;0.90;;;;;;;;;;4951647;28;98861;-82
2023/05/18 14:36:55;;;;;;;2.80;1.00;;;;;;;;;;4948170;28;99241;-83
2023/05/18 14:39:22;;;;;;;2.28;1.08;;;;;;;;;;4947387;28;99044;-83
2023/05/18 14:41:48;;;;;;;1.50;1.00;;;;;;;;;;4949037;28;98889;-83
2023/05/18 14:44:15;;;;;;;2.47;1.00;;;;;;;;;;4948694;28;100136;-83
2023/05/18 14:46:42;;;;;;;1.33;0.90;;;;;;;;;;4948251;28;97820;-82
2023/05/18 14:49:11;;;;;;;2.00;0.90;;;;;;;;;;4947978;28;99104;-82
2023/05/18 14:51:37;;;;;;;2.63;1.00;;;;;;;;;;4948297;28;99120;-83
2023/05/18 14:54:04;;;;;;;3.38;1.00;;;;;;;;;;4947385;28;99414;-83